Time;durP1;ratioP1;P1;durP2;ratioP2;P2;SDS_P1;SDS_P2;PMS_P1;PMS_P2;Temp;Humidity;BMP_temperature;BMP_pressure;BME280_temperature;BME280_humidity;BME280_pressure;Samples;Min_cycle;Max_cycle;Signal;HPM_P1;HPM_P2
2022/01/10 00:00:51;;;;;;;2.22;1.95;;;0.80;99.90;;;;;;5076491;28;20044;-68
2022/01/10 00:03:18;;;;;;;2.55;2.28;;;0.80;99.90;;;;;;5076953;28;20370;-67
2022/01/10 00:05:46;;;;;;;2.08;1.67;;;0.70;99.90;;;;;;5077157;28;20040;-67
2022/01/10 00:08:14;;;;;;;1.50;1.33;;;0.80;99.90;;;;;;5078056;28;20044;-67
2022/01/10 00:10:42;;;;;;;2.00;1.30;;;0.80;99.90;;;;;;5076937;28;20051;-68
2022/01/10 00:13:09;;;;;;;2.90;1.70;;;0.70;99.90;;;;;;5078207;28;20048;-69
2022/01/10 00:15:36;;;;;;;1.17;1.08;;;0.80;99.90;;;;;;5077290;28;20047;-67
2022/01/10 00:18:03;;;;;;;1.30;1.20;;;0.80;99.90;;;;;;5078644;28;20104;-68
2022/01/10 00:20:30;;;;;;;;;;;0.80;99.90;;;;;;5076885;28;20047;-68
2022/01/10 00:22:57;;;;;;;1.00;0.95;;;0.70;99.90;;;;;;5078509;28;19923;-68
2022/01/10 00:25:24;;;;;;;0.90;0.90;;;0.80;99.90;;;;;;5077741;28;20048;-68
2022/01/10 00:27:53;;;;;;;0.90;0.90;;;0.80;99.90;;;;;;5077173;28;20048;-67
2022/01/10 00:30:22;;;;;;;1.13;1.08;;;0.70;99.90;;;;;;5075765;28;20044;-68
2022/01/10 00:32:49;;;;;;;1.17;1.08;;;0.80;99.90;;;;;;5076287;28;20094;-67
2022/01/10 00:35:17;;;;;;;1.30;1.05;;;0.80;99.90;;;;;;5075656;28;20055;-68
2022/01/10 00:37:44;;;;;;;1.30;1.20;;;0.80;99.90;;;;;;5076507;28;20431;-68
2022/01/10 00:40:14;;;;;;;1.42;1.30;;;0.80;99.90;;;;;;5057788;28;20051;-68
2022/01/10 00:42:41;;;;;;;1.27;1.10;;;0.80;99.90;;;;;;5074536;28;20040;-68
2022/01/10 00:45:17;;;;;;;0.80;0.80;;;0.80;99.90;;;;;;5075520;28;20055;-68
2022/01/10 00:47:48;;;;;;;0.90;0.90;;;0.80;99.90;;;;;;5078208;28;20051;-67
2022/01/10 00:50:16;;;;;;;0.77;0.77;;;0.80;99.90;;;;;;5074635;28;20056;-67
2022/01/10 00:52:43;;;;;;;1.08;0.85;;;0.80;99.90;;;;;;5076231;28;20044;-68
2022/01/10 00:55:11;;;;;;;0.43;0.43;;;0.80;99.90;;;;;;5077497;28;20132;-68
2022/01/10 00:57:38;;;;;;;1.58;1.10;;;0.80;99.90;;;;;;5076446;28;20067;-68
2022/01/10 01:00:07;;;;;;;0.40;0.40;;;0.80;99.90;;;;;;5076696;28;20052;-68
2022/01/10 01:02:34;;;;;;;2.20;0.68;;;0.80;99.90;;;;;;5075985;28;20040;-68
2022/01/10 01:05:06;;;;;;;0.60;0.40;;;0.80;99.90;;;;;;5076511;28;20419;-68
2022/01/10 01:07:33;;;;;;;0.30;0.30;;;0.80;99.90;;;;;;5077750;28;20567;-68
2022/01/10 01:12:49;;;;;;;4.43;0.95;;;0.70;99.90;;;;;;5077114;28;20044;-68
2022/01/10 01:15:45;;;;;;;4.67;0.80;;;0.70;99.90;;;;;;5076797;28;20411;-68
2022/01/10 01:26:02;;;;;;;1.58;0.88;;;0.70;99.90;;;;;;5075700;28;20202;-68
2022/01/10 01:28:30;;;;;;;2.53;0.90;;;0.70;99.90;;;;;;5074427;28;20048;-68
2022/01/10 01:30:57;;;;;;;1.75;0.80;;;0.70;99.90;;;;;;5076392;28;20448;-68
2022/01/10 01:33:24;;;;;;;2.85;0.73;;;0.70;99.90;;;;;;5076492;28;20114;-68
2022/01/10 01:35:53;;;;;;;3.33;0.63;;;0.70;99.90;;;;;;5075432;28;20055;-68
2022/01/10 01:38:20;;;;;;;2.97;0.98;;;0.60;99.90;;;;;;5075350;28;20047;-68
2022/01/10 01:40:58;;;;;;;1.13;0.70;;;0.60;99.90;;;;;;5072957;28;20044;-67
2022/01/10 01:43:25;;;;;;;0.70;0.52;;;0.60;99.90;;;;;;5089367;28;20423;-68
2022/01/10 01:45:52;;;;;;;0.70;0.60;;;0.60;99.90;;;;;;5095634;28;20046;-67
2022/01/10 01:48:19;;;;;;;2.33;0.90;;;0.60;99.90;;;;;;5096098;28;20101;-68
2022/01/10 01:50:47;;;;;;;1.05;0.60;;;0.60;99.90;;;;;;5097375;28;20047;-67
2022/01/10 01:53:14;;;;;;;1.98;1.10;;;0.60;99.90;;;;;;5085122;28;20498;-67
2022/01/10 01:55:41;;;;;;;1.85;0.70;;;0.60;99.90;;;;;;5074132;28;20044;-67
2022/01/10 01:58:08;;;;;;;1.63;0.93;;;0.60;99.90;;;;;;5075188;28;20113;-68
2022/01/10 02:00:34;;;;;;;1.10;0.90;;;0.60;99.90;;;;;;5073973;28;20511;-67
2022/01/10 02:03:02;;;;;;;0.70;0.70;;;0.50;99.90;;;;;;5076620;28;20456;-69
2022/01/10 02:05:32;;;;;;;1.85;0.80;;;0.60;99.90;;;;;;5072640;28;20135;-68
2022/01/10 02:07:59;;;;;;;0.60;0.60;;;0.60;99.90;;;;;;5074913;28;20183;-69
2022/01/10 02:10:26;;;;;;;1.35;0.82;;;0.60;99.90;;;;;;5073436;28;20094;-68
2022/01/10 02:12:54;;;;;;;0.60;0.60;;;0.60;99.90;;;;;;5057570;28;20051;-68
2022/01/10 02:15:32;;;;;;;1.95;0.93;;;0.60;99.90;;;;;;5057870;28;20040;-67
2022/01/10 02:18:02;;;;;;;2.40;0.82;;;0.60;99.90;;;;;;5056928;28;20635;-68
2022/01/10 02:20:33;;;;;;;4.47;1.40;;;0.60;99.90;;;;;;5056682;28;20224;-68
2022/01/10 02:23:01;;;;;;;0.98;0.65;;;0.50;99.90;;;;;;5074219;28;20117;-68
2022/01/10 02:25:48;;;;;;;4.03;1.08;;;0.50;99.90;;;;;;5074899;28;20384;-67
2022/01/10 02:28:20;;;;;;;2.67;1.00;;;0.50;99.90;;;;;;5074451;28;20471;-68
2022/01/10 02:30:52;;;;;;;2.53;0.90;;;0.50;99.90;;;;;;5074595;28;20120;-68
2022/01/10 02:33:18;;;;;;;4.05;0.88;;;0.50;99.90;;;;;;5075010;28;20040;-68
2022/01/10 02:35:55;;;;;;;;;;;0.50;99.90;;;;;;5073866;28;20716;-68
2022/01/10 02:38:22;;;;;;;0.90;0.70;;;0.50;99.90;;;;;;5073630;28;19923;-68
2022/01/10 02:40:52;;;;;;;1.83;0.95;;;0.50;99.90;;;;;;5072907;28;20032;-68
2022/01/10 02:43:19;;;;;;;1.08;0.65;;;0.50;99.90;;;;;;5080819;28;20070;-68
2022/01/10 02:45:47;;;;;;;1.23;0.80;;;0.50;99.90;;;;;;5093198;28;20369;-67
2022/01/10 02:48:14;;;;;;;3.05;1.33;;;0.50;99.90;;;;;;5093536;28;20532;-67
2022/01/10 02:50:41;;;;;;;8.50;1.75;;;0.50;99.90;;;;;;5092972;28;20047;-67
2022/01/10 02:53:08;;;;;;;1.15;0.60;;;0.50;99.90;;;;;;5084429;28;20047;-67
2022/01/10 02:55:37;;;;;;;3.50;1.00;;;0.50;99.90;;;;;;5072628;28;20055;-67
2022/01/10 02:58:04;;;;;;;4.40;0.70;;;0.50;99.90;;;;;;5075865;28;20494;-68
2022/01/10 03:00:31;;;;;;;1.73;0.80;;;0.50;99.90;;;;;;5072565;28;20052;-67
2022/01/10 03:02:59;;;;;;;2.88;1.00;;;0.40;99.90;;;;;;5075605;28;20496;-67
2022/01/10 03:05:27;;;;;;;1.65;0.80;;;0.40;99.90;;;;;;5073202;28;20055;-67
2022/01/10 03:07:56;;;;;;;1.70;0.98;;;0.40;99.90;;;;;;5074966;28;20048;-67
2022/01/10 03:10:23;;;;;;;2.00;0.80;;;0.40;99.90;;;;;;5072964;28;20093;-67
2022/01/10 03:12:50;;;;;;;1.10;0.90;;;0.40;99.90;;;;;;5068915;28;20262;-67
2022/01/10 03:15:18;;;;;;;2.13;0.70;;;0.40;99.90;;;;;;5054341;28;20143;-68
2022/01/10 03:17:45;;;;;;;4.15;0.90;;;0.40;99.90;;;;;;5077334;28;20047;-67
2022/01/10 03:20:12;;;;;;;4.10;0.70;;;0.40;99.90;;;;;;5077776;28;20051;-66
2022/01/10 03:22:39;;;;;;;4.85;0.90;;;0.40;99.90;;;;;;5079829;28;20044;-66
2022/01/10 03:25:06;;;;;;;1.02;0.88;;;0.40;99.90;;;;;;5077741;28;20641;-66
2022/01/10 03:27:36;;;;;;;4.32;0.90;;;0.40;99.90;;;;;;5078124;28;20520;-66
2022/01/10 03:30:04;;;;;;;3.13;0.95;;;0.40;99.90;;;;;;5060298;28;20044;-66
2022/01/10 03:32:32;;;;;;;1.95;1.10;;;0.40;99.90;;;;;;5076170;28;20044;-66
2022/01/10 03:35:08;;;;;;;1.42;0.90;;;0.40;99.90;;;;;;5077806;28;20079;-67
2022/01/10 03:37:35;;;;;;;2.92;1.25;;;0.40;99.90;;;;;;5076927;28;20055;-66
2022/01/10 03:40:03;;;;;;;5.03;1.35;;;0.40;99.90;;;;;;5076358;28;20418;-66
2022/01/10 03:42:30;;;;;;;1.02;0.90;;;0.40;99.90;;;;;;5077300;28;20043;-66
2022/01/10 03:44:57;;;;;;;;;;;0.50;99.90;;;;;;5076597;28;20058;-67
2022/01/10 03:47:24;;;;;;;3.22;0.82;;;0.40;99.90;;;;;;5076836;28;19959;-65
2022/01/10 03:49:51;;;;;;;3.53;1.50;;;0.40;99.90;;;;;;5075740;28;20539;-67
2022/01/10 03:52:18;;;;;;;2.20;1.45;;;0.40;99.90;;;;;;5077563;28;20059;-67
2022/01/10 03:54:45;;;;;;;3.80;1.33;;;0.40;99.90;;;;;;5077764;28;20075;-67
2022/01/10 03:57:13;;;;;;;2.30;1.38;;;0.40;99.90;;;;;;5078161;28;20082;-67
2022/01/10 03:59:40;;;;;;;5.38;1.30;;;0.40;99.90;;;;;;5077430;28;20047;-66
2022/01/10 04:02:07;;;;;;;3.15;1.30;;;0.40;99.90;;;;;;5042389;28;20055;-67
2022/01/10 04:04:38;;;;;;;2.75;1.75;;;0.40;99.90;;;;;;5076920;28;20138;-65
2022/01/10 04:07:07;;;;;;;3.55;1.38;;;0.40;99.90;;;;;;5076398;28;20040;-66
2022/01/10 04:09:34;;;;;;;1.35;0.85;;;0.40;99.90;;;;;;5076672;28;20630;-66
2022/01/10 04:12:01;;;;;;;1.75;0.98;;;0.40;99.90;;;;;;5078126;28;20046;-66
2022/01/10 04:14:28;;;;;;;4.05;1.52;;;0.40;99.90;;;;;;5075944;28;20159;-67
2022/01/10 04:16:55;;;;;;;;;;;0.40;99.90;;;;;;5074052;28;20698;-66
2022/01/10 04:19:22;;;;;;;3.65;1.10;;;0.40;99.90;;;;;;5063578;28;20433;-66
2022/01/10 04:21:49;;;;;;;4.63;1.17;;;0.40;99.90;;;;;;5077109;28;20267;-65
2022/01/10 04:24:16;;;;;;;2.80;1.25;;;0.40;99.90;;;;;;5077270;28;20445;-67
2022/01/10 04:26:43;;;;;;;3.15;1.38;;;0.40;99.90;;;;;;5074902;28;20044;-67
2022/01/10 04:29:12;;;;;;;3.00;1.73;;;0.40;99.90;;;;;;5075002;28;20040;-66
2022/01/10 04:31:39;;;;;;;;;;;0.30;99.90;;;;;;5076067;28;20044;-67
2022/01/10 04:34:06;;;;;;;1.73;0.95;;;0.30;99.90;;;;;;5075158;28;20388;-66
2022/01/10 04:36:33;;;;;;;3.35;1.17;;;0.30;99.90;;;;;;5076925;28;20127;-66
2022/01/10 04:39:00;;;;;;;1.77;1.00;;;0.30;99.90;;;;;;5074422;28;20125;-66
2022/01/10 04:41:30;;;;;;;2.92;0.95;;;0.30;99.90;;;;;;5075742;28;20133;-66
2022/01/10 04:43:57;;;;;;;3.30;1.15;;;0.30;99.90;;;;;;5075981;28;20075;-67
2022/01/10 04:46:25;;;;;;;2.55;1.10;;;0.30;99.90;;;;;;5075905;28;20036;-67
2022/01/10 04:48:51;;;;;;;1.52;1.00;;;0.30;99.90;;;;;;5075342;28;20302;-67
2022/01/10 04:51:20;;;;;;;;;;;0.30;99.90;;;;;;5077012;28;20055;-67
2022/01/10 04:53:53;;;;;;;1.40;0.90;;;0.30;99.90;;;;;;5075089;28;20052;-67
2022/01/10 04:56:20;;;;;;;1.23;0.93;;;0.30;99.90;;;;;;5075510;28;20048;-67
2022/01/10 04:58:51;;;;;;;2.75;0.98;;;0.30;99.90;;;;;;5074741;28;20066;-67
2022/01/10 05:01:20;;;;;;;1.85;0.95;;;0.30;99.90;;;;;;5074799;28;20101;-67
2022/01/10 05:03:50;;;;;;;2.65;1.17;;;0.30;99.90;;;;;;5058441;28;20680;-68
2022/01/10 05:06:17;;;;;;;;;;;0.30;99.90;;;;;;5076696;28;20063;-68
2022/01/10 05:08:44;;;;;;;2.20;1.00;;;0.30;99.90;;;;;;5075459;28;20482;-69
2022/01/10 05:11:16;;;;;;;1.33;1.02;;;0.30;99.90;;;;;;5057729;28;20070;-68
2022/01/10 05:13:43;;;;;;;1.10;0.73;;;0.30;99.90;;;;;;5075231;28;20048;-68
2022/01/10 05:16:12;;;;;;;1.35;0.93;;;0.30;99.90;;;;;;5058136;28;20473;-68
2022/01/10 05:18:39;;;;;;;3.30;1.05;;;0.30;99.90;;;;;;5075955;28;20058;-68
2022/01/10 05:21:06;;;;;;;2.63;1.40;;;0.30;99.90;;;;;;5075114;28;20426;-68
2022/01/10 05:23:33;;;;;;;1.75;1.52;;;0.30;99.90;;;;;;5074346;28;20062;-68
2022/01/10 05:26:01;;;;;;;;;;;0.30;99.90;;;;;;5075788;28;20565;-67
2022/01/10 05:28:27;;;;;;;1.33;1.20;;;0.30;99.90;;;;;;5074558;28;20401;-67
2022/01/10 05:30:55;;;;;;;2.75;1.40;;;0.30;99.90;;;;;;5073936;28;20525;-68
2022/01/10 05:33:27;;;;;;;5.40;1.60;;;0.30;99.90;;;;;;5071349;28;20043;-68
2022/01/10 05:35:55;;;;;;;3.92;1.15;;;0.30;99.90;;;;;;5074151;28;20101;-68
2022/01/10 05:38:22;;;;;;;1.58;1.48;;;0.30;99.90;;;;;;5074491;28;20091;-68
2022/01/10 05:40:49;;;;;;;1.65;1.00;;;0.30;99.90;;;;;;5073131;28;20489;-68
2022/01/10 05:43:16;;;;;;;2.50;1.48;;;0.30;99.90;;;;;;5074937;28;20047;-68
2022/01/10 05:45:46;;;;;;;2.22;1.10;;;0.30;99.90;;;;;;5077000;28;20624;-68
2022/01/10 05:48:25;;;;;;;3.15;1.67;;;0.30;99.90;;;;;;5093770;28;20248;-68
2022/01/10 05:50:56;;;;;;;1.50;1.05;;;0.30;99.90;;;;;;5094496;28;20040;-68
2022/01/10 05:53:23;;;;;;;2.60;1.00;;;0.20;99.90;;;;;;5081768;28;20052;-68
2022/01/10 05:55:50;;;;;;;1.70;1.05;;;0.20;99.90;;;;;;5074695;28;20044;-68
2022/01/10 05:58:18;;;;;;;1.77;1.02;;;0.20;99.90;;;;;;5075975;28;20094;-68
2022/01/10 06:00:46;;;;;;;3.25;1.13;;;0.20;99.90;;;;;;5072940;28;20060;-68
2022/01/10 06:03:13;;;;;;;2.05;0.90;;;0.30;99.90;;;;;;5075696;28;20174;-69
2022/01/10 06:05:47;;;;;;;3.10;0.98;;;0.20;99.90;;;;;;5073329;28;20670;-68
2022/01/10 06:08:15;;;;;;;1.67;1.42;;;0.20;99.90;;;;;;5074480;28;20044;-68
2022/01/10 06:10:43;;;;;;;2.40;1.30;;;0.30;99.90;;;;;;5072819;28;20662;-68
2022/01/10 06:13:37;;;;;;;5.25;1.75;;;0.30;99.90;;;;;;5076416;28;20056;-68
2022/01/10 06:16:04;;;;;;;3.58;1.70;;;0.30;99.90;;;;;;5074327;28;20434;-68
2022/01/10 06:18:33;;;;;;;2.90;1.55;;;0.30;99.90;;;;;;5073685;28;20054;-68
2022/01/10 06:21:00;;;;;;;2.50;1.38;;;0.30;99.90;;;;;;5056881;28;20044;-69
2022/01/10 06:23:27;;;;;;;2.35;1.88;;;0.20;99.90;;;;;;5072681;28;20051;-69
2022/01/10 06:25:54;;;;;;;6.13;2.00;;;0.30;99.90;;;;;;5076070;28;20044;-68
2022/01/10 06:28:22;;;;;;;5.53;2.22;;;0.20;99.90;;;;;;5074403;28;20048;-68
2022/01/10 06:30:52;;;;;;;2.00;1.80;;;0.30;99.90;;;;;;5072459;28;20040;-68
2022/01/10 06:33:21;;;;;;;3.33;1.85;;;0.20;99.90;;;;;;5073691;28;20048;-68
2022/01/10 06:35:48;;;;;;;2.78;1.85;;;0.20;99.90;;;;;;5073276;28;20135;-68
2022/01/10 06:38:15;;;;;;;4.57;2.10;;;0.30;99.90;;;;;;5074024;28;20525;-59
2022/01/10 06:40:43;;;;;;;3.67;2.70;;;0.30;99.90;;;;;;5072941;28;20048;-57
2022/01/10 06:43:10;;;;;;;3.88;2.88;;;0.30;99.90;;;;;;5073046;28;20040;-57
2022/01/10 06:45:37;;;;;;;;;;;0.30;99.90;;;;;;5076061;28;20382;-57
2022/01/10 06:48:06;;;;;;;6.28;3.22;;;0.30;99.90;;;;;;5087310;28;20435;-57
2022/01/10 06:50:38;;;;;;;10.07;3.65;;;0.30;99.90;;;;;;5092833;28;20501;-57
2022/01/10 06:53:06;;;;;;;15.75;3.83;;;0.30;99.90;;;;;;5084489;28;20072;-57
2022/01/10 06:55:33;;;;;;;9.15;4.57;;;0.30;99.90;;;;;;5073762;28;20557;-57
2022/01/10 06:58:04;;;;;;;5.40;4.10;;;0.30;99.90;;;;;;5074450;28;20098;-58
2022/01/10 07:00:31;;;;;;;4.30;3.08;;;0.30;99.90;;;;;;5073361;28;20047;-57
2022/01/10 07:03:00;;;;;;;5.53;3.03;;;0.30;99.90;;;;;;5073918;28;20044;-57
2022/01/10 07:05:29;;;;;;;5.28;2.78;;;0.40;99.90;;;;;;5073122;28;20044;-57
2022/01/10 07:08:04;;;;;;;7.40;4.32;;;0.40;99.90;;;;;;5073302;28;20043;-55
2022/01/10 07:10:51;;;;;;;11.98;5.65;;;0.40;99.90;;;;;;5073063;28;20044;-56
2022/01/10 07:13:21;;;;;;;6.45;4.28;;;0.40;99.90;;;;;;5071886;28;20048;-59
2022/01/10 07:15:48;;;;;;;5.30;4.00;;;0.40;99.90;;;;;;5072147;28;20052;-55
2022/01/10 07:18:15;;;;;;;;;;;0.40;99.90;;;;;;5072666;28;20040;-56
2022/01/10 07:20:48;;;;;;;7.10;4.10;;;0.40;99.90;;;;;;5071719;28;19934;-55
2022/01/10 07:23:16;;;;;;;6.20;3.92;;;0.40;99.90;;;;;;5072507;28;20289;-57
2022/01/10 07:25:43;;;;;;;;;;;0.40;99.90;;;;;;5074587;28;20414;-59
2022/01/10 07:28:10;;;;;;;7.38;4.78;;;0.50;99.90;;;;;;5074753;28;19924;-59
2022/01/10 07:30:37;;;;;;;11.10;6.28;;;0.50;99.90;;;;;;5071338;28;20506;-58
2022/01/10 07:33:04;;;;;;;9.80;5.88;;;0.50;99.90;;;;;;5073620;28;20072;-56
2022/01/10 07:35:30;;;;;;;;;;;0.50;99.90;;;;;;5075442;28;20067;-57
2022/01/10 07:37:57;;;;;;;11.63;6.18;;;0.50;99.90;;;;;;5074051;28;20009;-57
2022/01/10 07:40:24;;;;;;;;;;;0.50;99.90;;;;;;5074534;28;20327;-57
2022/01/10 07:42:51;;;;;;;10.02;5.85;;;0.50;99.90;;;;;;5073377;28;20604;-57
2022/01/10 07:45:33;;;;;;;11.90;7.35;;;0.50;99.90;;;;;;5072900;28;20131;-58
2022/01/10 07:48:02;;;;;;;11.18;7.60;;;0.60;99.90;;;;;;5072935;28;20036;-58
2022/01/10 07:50:29;;;;;;;11.52;7.53;;;0.60;99.90;;;;;;5070667;28;20249;-57
2022/01/10 07:52:55;;;;;;;12.15;7.63;;;0.60;99.90;;;;;;5073642;28;20065;-60
2022/01/10 07:55:22;;;;;;;;;;;0.60;99.90;;;;;;5073129;28;20117;-59
2022/01/10 07:57:49;;;;;;;13.88;7.95;;;0.60;99.90;;;;;;5074320;28;19978;-58
2022/01/10 08:00:16;;;;;;;14.35;8.68;;;0.60;99.90;;;;;;5071906;28;20315;-58
2022/01/10 08:02:43;;;;;;;13.77;8.13;;;0.60;99.90;;;;;;5073798;28;20100;-58
2022/01/10 08:05:10;;;;;;;12.73;8.40;;;0.70;99.90;;;;;;5077163;28;20036;-58
2022/01/10 08:07:37;;;;;;;16.00;9.65;;;0.70;99.90;;;;;;5077632;28;20525;-58
2022/01/10 08:10:05;;;;;;;15.73;9.15;;;0.70;99.90;;;;;;5076753;28;20048;-58
2022/01/10 08:12:32;;;;;;;15.82;9.20;;;0.70;99.90;;;;;;5077680;28;20105;-58
2022/01/10 08:14:58;;;;;;;;;;;0.70;99.90;;;;;;5077804;28;20043;-58
2022/01/10 08:17:25;;;;;;;15.05;9.57;;;0.70;99.90;;;;;;5077838;28;20139;-56
2022/01/10 08:19:52;;;;;;;18.27;11.23;;;0.80;99.90;;;;;;5075480;28;20082;-56
2022/01/10 08:22:19;;;;;;;16.80;10.95;;;0.80;99.90;;;;;;5077325;28;20044;-56
2022/01/10 08:24:45;;;;;;;;;;;0.80;99.90;;;;;;5077996;28;20124;-57
2022/01/10 08:27:12;;;;;;;39.15;14.35;;;0.80;99.90;;;;;;5072184;28;20080;-57
2022/01/10 08:29:39;;;;;;;28.38;14.18;;;1.10;99.90;;;;;;5075984;28;20036;-57
2022/01/10 08:32:07;;;;;;;30.15;15.70;;;1.60;99.90;;;;;;5076149;28;20754;-57
2022/01/10 08:34:35;;;;;;;24.55;13.75;;;1.70;99.90;;;;;;5076676;28;20036;-58
2022/01/10 08:37:02;;;;;;;26.13;13.63;;;1.70;99.90;;;;;;5076287;28;20074;-57
2022/01/10 08:39:28;;;;;;;26.17;12.88;;;1.60;99.90;;;;;;5076164;28;20048;-58
2022/01/10 08:41:55;;;;;;;;;;;1.60;99.90;;;;;;5077726;28;20541;-58
2022/01/10 08:44:22;;;;;;;28.55;12.10;;;1.50;99.90;;;;;;5076519;28;19928;-58
2022/01/10 08:46:49;;;;;;;;;;;1.50;99.90;;;;;;5082296;28;20100;-56
2022/01/10 08:49:15;;;;;;;17.40;10.13;;;1.50;99.90;;;;;;5079242;28;19920;-56
2022/01/10 08:51:42;;;;;;;;;;;1.40;99.90;;;;;;5078263;28;20073;-56
2022/01/10 08:54:10;;;;;;;21.52;10.88;;;1.40;99.90;;;;;;5077413;28;20478;-58
2022/01/10 08:56:37;;;;;;;17.17;11.02;;;1.30;99.90;;;;;;5076859;28;20064;-56
2022/01/10 08:59:05;;;;;;;20.35;11.93;;;1.30;99.90;;;;;;5077053;28;20521;-55
2022/01/10 09:01:34;;;;;;;19.23;11.57;;;1.30;99.90;;;;;;5075617;28;20032;-56
2022/01/10 09:04:01;;;;;;;15.93;10.23;;;1.30;99.90;;;;;;5079430;28;20033;-57
2022/01/10 09:06:27;;;;;;;;;;;1.30;99.90;;;;;;5080394;28;20048;-57
2022/01/10 09:08:54;;;;;;;17.00;10.23;;;1.20;99.90;;;;;;5075251;28;19992;-57
2022/01/10 09:11:21;;;;;;;18.02;8.75;;;1.30;99.90;;;;;;5080511;28;20627;-57
2022/01/10 09:13:48;;;;;;;18.08;9.52;;;1.30;99.90;;;;;;5075883;28;20052;-58
2022/01/10 09:16:15;;;;;;;17.65;8.80;;;1.30;99.90;;;;;;5075085;28;20384;-58
2022/01/10 09:18:42;;;;;;;19.77;9.05;;;1.20;99.90;;;;;;5075844;28;20445;-57
2022/01/10 09:21:09;;;;;;;15.23;9.27;;;1.30;99.90;;;;;;5087397;28;20116;-56
2022/01/10 09:23:35;;;;;;;;;;;1.30;99.90;;;;;;5088365;28;20036;-56
2022/01/10 09:26:02;;;;;;;21.95;10.25;;;1.30;99.90;;;;;;5084004;28;19993;-57
2022/01/10 09:28:29;;;;;;;15.40;9.05;;;1.30;99.90;;;;;;5074310;28;20047;-57
2022/01/10 09:30:56;;;;;;;;;;;1.30;99.90;;;;;;5076462;28;20044;-57
2022/01/10 09:33:27;;;;;;;20.30;9.07;;;1.30;99.90;;;;;;5073017;28;19924;-57
2022/01/10 09:35:54;;;;;;;;;;;1.30;99.90;;;;;;5073171;28;20076;-57
2022/01/10 09:38:21;;;;;;;17.95;9.55;;;1.30;99.90;;;;;;5071447;28;19928;-58
2022/01/10 09:40:47;;;;;;;;;;;1.40;99.90;;;;;;5072928;28;20117;-59
2022/01/10 09:43:18;;;;;;;20.92;10.85;;;1.40;99.90;;;;;;5073127;28;20011;-59
2022/01/10 09:45:45;;;;;;;22.20;12.18;;;1.40;99.90;;;;;;5071916;28;20048;-58
2022/01/10 09:48:12;;;;;;;23.30;12.98;;;1.40;99.90;;;;;;5073159;28;20047;-58
2022/01/10 09:50:39;;;;;;;24.38;13.77;;;1.40;99.90;;;;;;5071530;28;20314;-58
2022/01/10 09:53:07;;;;;;;21.75;13.10;;;1.50;99.90;;;;;;5072768;28;20063;-58
2022/01/10 09:55:34;;;;;;;20.35;13.57;;;1.50;99.90;;;;;;5073002;28;20125;-58
2022/01/10 09:58:03;;;;;;;19.73;12.80;;;1.50;99.90;;;;;;5072594;28;20078;-58
2022/01/10 10:00:31;;;;;;;22.85;13.57;;;1.50;99.90;;;;;;5072411;28;20078;-57
2022/01/10 10:02:58;;;;;;;30.65;14.20;;;1.50;99.90;;;;;;5073838;28;20557;-56
2022/01/10 10:05:25;;;;;;;26.75;14.25;;;1.50;99.90;;;;;;5075158;28;20044;-57
2022/01/10 10:07:52;;;;;;;27.60;14.35;;;1.50;99.90;;;;;;5075114;28;20051;-56
2022/01/10 10:10:21;;;;;;;27.45;14.65;;;1.50;99.90;;;;;;5073888;28;20113;-56
2022/01/10 10:12:50;;;;;;;29.42;16.58;;;1.60;99.90;;;;;;5074564;28;20044;-56
2022/01/10 10:15:22;;;;;;;28.40;15.73;;;1.60;99.90;;;;;;5075177;28;20036;-57
2022/01/10 10:17:49;;;;;;;27.83;16.10;;;1.70;99.90;;;;;;5075183;28;20456;-57
2022/01/10 10:20:21;;;;;;;32.00;17.85;;;1.80;99.90;;;;;;5072905;28;20376;-58
2022/01/10 10:23:14;;;;;;;29.85;16.60;;;1.80;99.90;;;;;;5073158;28;20154;-56
2022/01/10 10:25:54;;;;;;;27.48;16.40;;;1.90;99.90;;;;;;5074369;28;20044;-57
2022/01/10 10:28:21;;;;;;;25.95;15.35;;;1.90;99.90;;;;;;5076240;28;20047;-57
2022/01/10 10:30:55;;;;;;;25.67;15.82;;;2.00;99.90;;;;;;5075760;28;20529;-58
2022/01/10 10:33:23;;;;;;;32.00;16.58;;;2.00;99.90;;;;;;5070676;28;20052;-58
2022/01/10 10:36:07;;;;;;;26.83;15.98;;;2.00;99.90;;;;;;5075594;28;20349;-55
2022/01/10 10:38:34;;;;;;;29.13;16.52;;;2.10;99.90;;;;;;5074632;28;20043;-56
2022/01/10 10:41:03;;;;;;;25.40;15.27;;;2.20;99.90;;;;;;5074376;28;20467;-58
2022/01/10 10:43:35;;;;;;;31.27;16.67;;;2.20;99.90;;;;;;5075790;28;20055;-59
2022/01/10 10:46:08;;;;;;;21.50;13.88;;;2.20;99.90;;;;;;5074774;28;20432;-59
2022/01/10 10:48:37;;;;;;;21.73;12.52;;;2.30;99.90;;;;;;5075573;28;20514;-59
2022/01/10 10:51:05;;;;;;;22.30;12.00;;;2.30;99.90;;;;;;5074251;28;20101;-58
2022/01/10 10:53:32;;;;;;;19.23;11.85;;;2.40;99.90;;;;;;5074816;28;20066;-59
2022/01/10 10:56:03;;;;;;;20.60;11.98;;;2.40;99.90;;;;;;5076070;28;20044;-58
2022/01/10 10:58:35;;;;;;;28.92;15.52;;;2.40;99.90;;;;;;5074214;28;20056;-59
2022/01/10 11:01:04;;;;;;;26.80;15.07;;;2.40;99.90;;;;;;5074920;28;20133;-59
2022/01/10 11:03:31;;;;;;;21.92;14.45;;;2.30;99.90;;;;;;5075304;28;20061;-59
2022/01/10 11:06:01;;;;;;;30.48;16.40;;;2.30;99.90;;;;;;5075793;28;20692;-59
2022/01/10 11:08:31;;;;;;;21.85;12.68;;;2.30;99.90;;;;;;5074799;28;20074;-58
2022/01/10 11:10:59;;;;;;;25.75;14.88;;;2.30;99.90;;;;;;5074187;28;20048;-58
2022/01/10 11:13:28;;;;;;;23.00;13.60;;;2.40;99.90;;;;;;5075703;28;20666;-59
2022/01/10 11:15:56;;;;;;;20.30;13.18;;;2.40;99.90;;;;;;5074213;28;20105;-59
2022/01/10 11:18:25;;;;;;;18.98;11.95;;;2.50;99.90;;;;;;5074732;28;20052;-59
2022/01/10 11:20:55;;;;;;;20.67;13.43;;;2.50;99.90;;;;;;5073258;28;20043;-58
2022/01/10 11:23:39;;;;;;;20.02;12.02;;;2.60;99.90;;;;;;5073839;28;20293;-58
2022/01/10 11:26:07;;;;;;;25.88;13.40;;;2.60;99.90;;;;;;5075473;28;20557;-58
2022/01/10 11:28:46;;;;;;;27.50;15.50;;;2.60;99.90;;;;;;5072618;28;20028;-58
2022/01/10 11:31:19;;;;;;;30.65;15.98;;;2.60;99.90;;;;;;5074788;28;20066;-59
2022/01/10 11:33:47;;;;;;;26.15;15.70;;;2.60;99.90;;;;;;5074418;28;20490;-59
2022/01/10 11:36:14;;;;;;;30.80;16.15;;;2.50;99.90;;;;;;5073424;28;20462;-59
2022/01/10 11:38:49;;;;;;;28.20;16.17;;;2.50;99.90;;;;;;5079253;28;20589;-57
2022/01/10 11:41:19;;;;;;;27.95;16.30;;;2.50;99.90;;;;;;5077827;28;20101;-57
2022/01/10 11:43:56;;;;;;;27.25;15.77;;;2.50;99.90;;;;;;5079818;28;20051;-56
2022/01/10 11:46:33;;;;;;;28.17;16.33;;;2.40;99.90;;;;;;5078507;28;20055;-55
2022/01/10 11:49:09;;;;;;;29.98;16.92;;;2.40;99.90;;;;;;5058591;28;20055;-58
2022/01/10 11:52:01;;;;;;;29.95;17.00;;;2.40;99.90;;;;;;5066179;28;20040;-59
2022/01/10 11:54:38;;;;;;;37.80;18.98;;;2.40;99.90;;;;;;5051683;28;20060;-59
2022/01/10 11:57:06;;;;;;;;;;;2.40;99.90;;;;;;5075013;28;20040;-60
2022/01/10 11:59:43;;;;;;;27.33;14.80;;;2.40;99.90;;;;;;5082849;28;20005;-59
2022/01/10 12:02:11;;;;;;;25.98;14.85;;;2.50;99.90;;;;;;5078545;28;20044;-60
2022/01/10 12:04:58;;;;;;;26.63;15.50;;;2.50;99.90;;;;;;5077130;28;20122;-62
2022/01/10 12:07:27;;;;;;;28.15;14.65;;;2.50;99.90;;;;;;5075111;28;20407;-62
2022/01/10 12:10:08;;;;;;;26.20;14.98;;;2.50;99.90;;;;;;5075343;28;20052;-59
2022/01/10 12:12:41;;;;;;;21.98;12.73;;;2.50;99.90;;;;;;5072170;28;20047;-62
2022/01/10 12:15:08;;;;;;;21.52;12.77;;;2.50;99.90;;;;;;5074710;28;20458;-59
2022/01/10 12:17:36;;;;;;;25.17;12.45;;;2.50;99.90;;;;;;5077188;28;20044;-58
2022/01/10 12:20:07;;;;;;;21.25;12.90;;;2.50;99.90;;;;;;5076380;28;20153;-58
2022/01/10 12:22:34;;;;;;;28.20;13.70;;;2.50;99.90;;;;;;5077525;28;20059;-59
2022/01/10 12:25:01;;;;;;;24.35;12.57;;;2.50;99.90;;;;;;5076649;28;20081;-59
2022/01/10 12:27:28;;;;;;;25.73;13.40;;;2.60;99.90;;;;;;5074909;28;20039;-60
2022/01/10 12:29:55;;;;;;;;;;;2.60;99.90;;;;;;5074591;28;20253;-58
2022/01/10 12:32:22;;;;;;;28.20;15.15;;;2.60;99.90;;;;;;5075304;28;19927;-59
2022/01/10 12:34:48;;;;;;;;;;;2.60;99.90;;;;;;5079119;28;20478;-58
2022/01/10 12:37:16;;;;;;;24.88;13.82;;;2.60;99.90;;;;;;5080376;28;20157;-58
2022/01/10 12:39:42;;;;;;;31.33;17.67;;;2.60;99.90;;;;;;5079448;28;20068;-58
2022/01/10 12:42:10;;;;;;;;;;;2.60;99.90;;;;;;5078568;28;20118;-60
2022/01/10 12:44:37;;;;;;;;;;;2.60;99.90;;;;;;5077432;28;20009;-61
2022/01/10 12:47:04;;;;;;;27.23;14.35;;;2.50;99.90;;;;;;5080121;28;20298;-60
2022/01/10 12:49:31;;;;;;;33.70;15.52;;;2.60;99.90;;;;;;5078163;28;20101;-60
2022/01/10 12:51:58;;;;;;;24.05;13.98;;;2.50;99.90;;;;;;5078907;28;20581;-60
2022/01/10 12:54:31;;;;;;;22.58;14.18;;;2.50;99.90;;;;;;5079025;28;20523;-63
2022/01/10 12:57:00;;;;;;;23.90;14.23;;;2.50;99.90;;;;;;5074444;28;20044;-58
2022/01/10 12:59:29;;;;;;;26.80;15.23;;;2.50;99.90;;;;;;5075531;28;20414;-58
2022/01/10 13:01:58;;;;;;;26.90;14.35;;;2.60;99.90;;;;;;5068472;28;20596;-61
2022/01/10 13:04:34;;;;;;;23.83;13.95;;;2.60;99.90;;;;;;5074567;28;20047;-57
2022/01/10 13:07:07;;;;;;;23.42;12.38;;;2.60;99.90;;;;;;5075151;28;20043;-58
2022/01/10 13:09:55;;;;;;;20.50;12.85;;;2.70;99.90;;;;;;5073217;28;20044;-58
2022/01/10 13:14:53;;;;;;;29.83;15.75;;;2.70;99.90;;;;;;5074534;28;20063;-58
2022/01/10 13:17:24;;;;;;;28.27;14.00;;;2.70;99.90;;;;;;5065234;28;20052;-58
2022/01/10 13:20:10;;;;;;;23.48;13.52;;;2.60;99.90;;;;;;5072686;28;20076;-58